createdAt,value
2019-03-21T00:00:49.642Z,10.22
2019-03-21T00:03:30.319Z,10.25
2019-03-21T00:06:29.977Z,10.27
2019-03-21T00:09:36.351Z,10.30
2019-03-21T00:12:10.885Z,10.39
2019-03-21T00:15:06.597Z,10.38
2019-03-21T00:18:28.973Z,10.40
2019-03-21T00:21:05.388Z,10.45
2019-03-21T00:23:48.588Z,10.43
2019-03-21T00:26:40.854Z,10.49
2019-03-21T00:29:11.372Z,10.46
2019-03-21T00:31:40.568Z,10.54
2019-03-21T00:34:17.489Z,10.54
2019-03-21T00:36:46.429Z,10.43
2019-03-21T00:39:32.397Z,10.47
2019-03-21T00:41:55.831Z,10.54
2019-03-21T00:44:25.017Z,10.59
2019-03-21T00:47:10.650Z,10.78
2019-03-21T00:49:41.885Z,10.69
2019-03-21T00:52:12.137Z,10.65
2019-03-21T00:54:47.008Z,10.67
2019-03-21T00:57:16.719Z,10.62
2019-03-21T00:59:56.143Z,10.65
2019-03-21T01:02:24.563Z,10.68
2019-03-21T01:04:53.079Z,10.48
2019-03-21T01:07:30.830Z,10.44
2019-03-21T01:10:10.984Z,10.44
2019-03-21T01:12:47.784Z,10.50
2019-03-21T01:15:21.792Z,10.40
2019-03-21T01:17:54.931Z,10.35
2019-03-21T01:20:34.969Z,10.34
2019-03-21T01:23:07.314Z,10.40
2019-03-21T01:25:42.440Z,10.29
2019-03-21T01:28:11.122Z,10.29
2019-03-21T01:30:43.969Z,10.19
2019-03-21T01:33:28.344Z,10.11
2019-03-21T01:35:58.579Z,10.09
2019-03-21T01:38:29.909Z,10.12
2019-03-21T01:41:18.649Z,10.15
2019-03-21T01:43:51.714Z,10.08
2019-03-21T01:46:24.912Z,10.11
2019-03-21T01:49:09.593Z,10.10
2019-03-21T01:51:42.198Z,9.98
2019-03-21T01:54:22.366Z,10.14
2019-03-21T01:56:52.643Z,10.08
2019-03-21T02:00:19.603Z,10.08
2019-03-21T02:03:33.316Z,10.14
2019-03-21T02:07:08.455Z,10.03
2019-03-21T02:13:41.885Z,10.11
2019-03-21T02:16:48.090Z,10.00
2019-03-21T02:19:21.844Z,10.07
2019-03-21T02:21:50.184Z,10.06
2019-03-21T02:24:18.683Z,10.11
2019-03-21T02:26:52.321Z,10.06
2019-03-21T02:29:28.430Z,10.10
2019-03-21T02:32:06.020Z,10.17
2019-03-21T02:34:34.690Z,10.16
2019-03-21T02:37:03.078Z,10.07
2019-03-21T02:39:33.594Z,10.19
2019-03-21T02:42:05.070Z,10.10
2019-03-21T02:44:36.411Z,10.12
2019-03-21T02:47:04.725Z,10.07
2019-03-21T02:49:32.826Z,10.02
2019-03-21T02:52:01.114Z,10.08
2019-03-21T02:54:29.239Z,10.11
2019-03-21T02:56:57.489Z,10.16
2019-03-21T02:59:25.694Z,10.18
2019-03-21T03:01:53.833Z,10.11
2019-03-21T03:04:21.982Z,10.02
2019-03-21T03:06:50.279Z,10.13
2019-03-21T03:09:18.370Z,10.14
2019-03-21T03:11:46.593Z,10.15
2019-03-21T03:14:14.881Z,10.14
2019-03-21T03:16:43.138Z,10.14
2019-03-21T03:19:11.269Z,10.04
2019-03-21T03:21:39.244Z,10.14
2019-03-21T03:24:08.013Z,10.11
2019-03-21T03:26:36.019Z,10.07
2019-03-21T03:29:03.944Z,10.03
2019-03-21T03:31:32.150Z,10.06
2019-03-21T03:34:00.117Z,9.99
2019-03-21T03:36:28.655Z,9.88
2019-03-21T03:38:56.679Z,9.92
2019-03-21T03:41:24.626Z,9.88
2019-03-21T03:43:52.738Z,9.87
2019-03-21T03:46:20.680Z,9.76
2019-03-21T03:48:48.700Z,9.83
2019-03-21T03:51:16.669Z,9.70
2019-03-21T03:53:44.788Z,9.67
2019-03-21T03:56:12.936Z,9.66
2019-03-21T03:58:42.449Z,9.57
2019-03-21T04:01:10.396Z,9.65
2019-03-21T04:03:38.505Z,9.59
2019-03-21T04:06:06.531Z,9.60
2019-03-21T04:08:34.541Z,9.68
2019-03-21T04:11:02.591Z,9.70
2019-03-21T04:13:30.645Z,9.71
2019-03-21T04:15:58.694Z,9.69
2019-03-21T04:18:27.749Z,9.73
2019-03-21T04:20:56.513Z,9.73
2019-03-21T04:23:24.509Z,9.70
2019-03-21T04:25:55.877Z,9.70
2019-03-21T04:28:23.864Z,9.63
2019-03-21T04:30:51.803Z,9.62
2019-03-21T04:33:22.472Z,9.63
2019-03-21T04:35:49.624Z,9.58
2019-03-21T04:38:17.624Z,9.48
2019-03-21T04:40:45.589Z,9.47
2019-03-21T04:43:13.659Z,9.47
2019-03-21T04:45:42.140Z,9.46
2019-03-21T04:48:10.664Z,9.38
2019-03-21T04:50:39.864Z,9.44
2019-03-21T04:53:11.145Z,9.48
2019-03-21T04:55:39.139Z,9.52
2019-03-21T04:58:07.219Z,9.62
2019-03-21T05:00:35.739Z,9.51
2019-03-21T05:03:04.794Z,9.51
2019-03-21T05:05:32.865Z,9.56
2019-03-21T05:08:02.550Z,9.55
2019-03-21T05:10:30.464Z,9.57
2019-03-21T05:12:59.019Z,9.53
2019-03-21T05:15:29.189Z,9.50
2019-03-21T05:17:59.879Z,9.59
2019-03-21T05:20:29.861Z,9.67
2019-03-21T05:22:58.158Z,9.67
2019-03-21T05:25:26.319Z,9.59
2019-03-21T05:27:54.323Z,9.69
2019-03-21T05:30:26.129Z,9.66
2019-03-21T05:32:54.099Z,9.60
2019-03-21T05:35:22.105Z,9.67
2019-03-21T05:37:50.120Z,9.68
2019-03-21T05:40:18.080Z,9.69
2019-03-21T05:42:50.144Z,9.64
2019-03-21T05:45:18.214Z,9.71
2019-03-21T05:47:46.200Z,9.70
2019-03-21T05:50:15.153Z,9.67
2019-03-21T05:52:43.224Z,9.70
2019-03-21T05:58:30.794Z,9.70
2019-03-21T06:01:01.590Z,9.64
2019-03-21T06:03:33.993Z,9.71
2019-03-21T06:06:18.560Z,9.77
2019-03-21T06:08:46.794Z,9.74
2019-03-21T06:11:47.015Z,9.78
2019-03-21T06:14:26.873Z,9.91
2019-03-21T06:16:59.713Z,9.93
2019-03-21T06:19:56.217Z,9.96
2019-03-21T06:23:22.553Z,9.92
2019-03-21T06:26:39.374Z,9.96
2019-03-21T06:37:13.163Z,10.24
2019-03-21T06:40:10.347Z,10.25
2019-03-21T06:43:12.014Z,10.37
2019-03-21T06:45:58.059Z,10.35
2019-03-21T06:48:29.178Z,10.37
2019-03-21T06:52:09.784Z,10.41
2019-03-21T07:05:19.094Z,10.29
2019-03-21T07:11:21.257Z,10.58
2019-03-21T07:13:38.507Z,10.63
2019-03-21T07:16:09.284Z,10.61
2019-03-21T07:19:23.938Z,10.74
2019-03-21T07:22:43.171Z,10.56
2019-03-21T07:25:26.279Z,10.84
2019-03-21T07:28:55.297Z,11.02
2019-03-21T07:31:23.425Z,11.32
2019-03-21T07:33:51.421Z,11.45
2019-03-21T07:36:19.395Z,11.49
2019-03-21T07:39:23.758Z,11.63
2019-03-21T07:43:04.995Z,11.61
2019-03-21T07:45:32.994Z,11.62
2019-03-21T07:48:00.930Z,11.66
2019-03-21T07:50:49.660Z,11.82
2019-03-21T07:53:42.056Z,12.42
2019-03-21T08:00:31.974Z,13.27
2019-03-21T08:03:00.227Z,14.00
2019-03-21T08:05:39.720Z,14.82
2019-03-21T08:08:00.583Z,14.83
2019-03-21T08:10:28.720Z,15.72
2019-03-21T08:12:56.705Z,15.63
2019-03-21T08:15:26.135Z,16.27
2019-03-21T08:17:54.249Z,16.64
2019-03-21T08:21:03.585Z,16.91
2019-03-21T08:27:16.304Z,17.02
2019-03-21T08:29:44.830Z,17.27
2019-03-21T08:32:18.103Z,17.27
2019-03-21T08:34:58.844Z,16.60
2019-03-21T08:37:27.154Z,16.91
2019-03-21T08:39:55.275Z,16.99
2019-03-21T08:42:23.279Z,17.24
2019-03-21T08:44:51.555Z,16.60
2019-03-21T08:55:25.453Z,17.45
2019-03-21T09:15:43.873Z,17.09
2019-03-21T09:18:14.309Z,16.23
2019-03-21T09:24:24.586Z,15.99
2019-03-21T09:27:14.403Z,15.96
2019-03-21T09:37:58.238Z,15.39
2019-03-21T09:41:50.943Z,15.39
2019-03-21T09:52:47.477Z,16.26
2019-03-21T09:58:37.409Z,16.06
2019-03-21T10:01:23.903Z,16.20
2019-03-21T10:03:52.059Z,16.16
2019-03-21T10:06:32.631Z,16.20
2019-03-21T10:20:14.488Z,15.93
2019-03-21T10:32:21.618Z,15.41
2019-03-21T10:35:24.660Z,15.47
2019-03-21T10:39:11.018Z,15.13
2019-03-21T10:53:38.580Z,16.16
2019-03-21T10:56:52.503Z,16.23
2019-03-21T11:07:33.815Z,16.00
2019-03-21T11:10:05.299Z,15.20
2019-03-21T11:21:04.110Z,17.09
2019-03-21T11:42:02.607Z,16.66
2019-03-21T11:44:30.577Z,17.23
2019-03-21T11:47:01.357Z,17.42
2019-03-21T11:49:31.947Z,17.35
2019-03-21T11:52:05.077Z,17.49
2019-03-21T11:54:35.889Z,17.44
2019-03-21T11:57:04.235Z,17.13
2019-03-21T11:59:51.864Z,17.14
2019-03-21T12:02:26.756Z,17.02
2019-03-21T12:04:47.436Z,17.18
2019-03-21T12:07:18.599Z,17.09
2019-03-21T12:09:46.735Z,17.31
2019-03-21T12:12:15.018Z,17.26
2019-03-21T12:14:45.777Z,17.09
2019-03-21T12:17:14.195Z,17.17
2019-03-21T12:19:42.344Z,17.25
2019-03-21T12:22:10.434Z,17.21
2019-03-21T12:24:38.635Z,17.25
2019-03-21T12:27:06.775Z,17.20
2019-03-21T12:29:45.776Z,17.29
2019-03-21T12:35:50.997Z,17.33
2019-03-21T12:38:24.214Z,17.30
2019-03-21T12:41:17.075Z,17.31
2019-03-21T12:44:14.174Z,17.54
2019-03-21T12:47:02.293Z,17.43
2019-03-21T12:49:30.813Z,17.36
2019-03-21T12:52:01.572Z,17.57
2019-03-21T12:54:29.635Z,17.60
2019-03-21T12:56:57.892Z,17.50
2019-03-21T12:59:26.241Z,17.52
2019-03-21T13:01:55.212Z,17.38
2019-03-21T13:04:25.912Z,17.57
2019-03-21T13:06:58.714Z,17.40
2019-03-21T13:09:32.770Z,17.33
2019-03-21T13:12:03.672Z,17.66
2019-03-21T13:14:35.846Z,17.30
2019-03-21T13:17:09.252Z,17.37
2019-03-21T13:19:38.812Z,17.56
2019-03-21T13:22:09.689Z,17.52
2019-03-21T13:25:20.602Z,17.34
2019-03-21T13:28:01.712Z,17.33
2019-03-21T13:30:36.194Z,17.47
2019-03-21T13:33:27.706Z,17.48
2019-03-21T13:36:15.031Z,17.60
2019-03-21T13:38:43.351Z,17.36
2019-03-21T13:41:11.392Z,17.34
2019-03-21T13:43:39.472Z,17.22
2019-03-21T13:46:07.525Z,17.22
2019-03-21T13:48:35.687Z,17.20
2019-03-21T13:51:03.872Z,17.12
2019-03-21T13:53:35.597Z,17.09
2019-03-21T14:03:30.431Z,17.09
2019-03-21T14:06:04.856Z,17.08
2019-03-21T14:08:58.990Z,16.98
2019-03-21T14:11:47.931Z,17.19
2019-03-21T14:14:16.213Z,17.12
2019-03-21T14:16:44.232Z,17.11
2019-03-21T14:19:12.391Z,17.15
2019-03-21T14:43:24.611Z,16.88
2019-03-21T14:45:52.752Z,16.87
2019-03-21T14:48:20.913Z,16.92
2019-03-21T14:50:49.372Z,16.84
2019-03-21T14:53:28.824Z,16.63
2019-03-21T14:55:51.373Z,16.70
2019-03-21T14:58:21.314Z,16.76
2019-03-21T15:00:49.661Z,16.72
2019-03-21T15:03:28.513Z,16.77
2019-03-21T15:05:58.175Z,16.65
2019-03-21T15:08:26.515Z,16.64
2019-03-21T15:10:54.654Z,16.58
2019-03-21T15:13:31.411Z,16.61
2019-03-21T15:16:10.972Z,16.53
2019-03-21T15:19:20.990Z,16.57
2019-03-21T15:22:07.026Z,16.69
2019-03-21T15:28:22.651Z,16.57
2019-03-21T15:32:53.452Z,16.50
2019-03-21T15:35:07.390Z,16.38
2019-03-21T15:38:02.607Z,16.38
2019-03-21T15:40:32.333Z,16.40
2019-03-21T15:43:02.352Z,16.35
2019-03-21T15:45:30.732Z,16.35
2019-03-21T15:47:58.828Z,16.37
2019-03-21T15:50:39.095Z,16.41
2019-03-21T15:53:32.593Z,16.40
2019-03-21T15:56:04.583Z,16.50
2019-03-21T15:58:33.093Z,16.59
2019-03-21T16:01:38.892Z,16.57
2019-03-21T16:05:15.645Z,16.53
2019-03-21T16:15:07.595Z,16.48
2019-03-21T16:21:37.953Z,16.42
2019-03-21T16:28:45.903Z,16.24
2019-03-21T16:45:45.008Z,16.03
2019-03-21T16:59:24.012Z,15.74
2019-03-21T17:01:52.221Z,15.54
2019-03-21T17:04:20.508Z,15.58
2019-03-21T17:06:48.683Z,15.53
2019-03-21T17:17:05.305Z,15.29
2019-03-21T17:37:49.063Z,14.70
2019-03-21T17:40:18.635Z,14.53
2019-03-21T17:43:34.861Z,14.49
2019-03-21T17:46:54.239Z,14.42
2019-03-21T17:49:48.460Z,14.20
2019-03-21T17:52:23.035Z,14.09
2019-03-21T17:54:54.405Z,14.04
2019-03-21T17:59:20.247Z,13.97
2019-03-21T18:01:18.663Z,13.87
2019-03-21T18:07:08.561Z,13.59
2019-03-21T18:17:32.025Z,13.42
2019-03-21T18:20:56.533Z,13.23
2019-03-21T18:23:26.746Z,13.04
2019-03-21T18:25:55.163Z,12.98
2019-03-21T18:28:45.532Z,12.84
2019-03-21T18:31:19.195Z,12.73
2019-03-21T18:33:52.360Z,12.71
2019-03-21T18:36:36.825Z,12.77
2019-03-21T18:41:33.475Z,12.69
2019-03-21T18:46:45.368Z,12.35
2019-03-21T18:50:09.234Z,12.14
2019-03-21T18:52:41.042Z,11.99
2019-03-21T18:55:20.791Z,11.84
2019-03-21T18:58:17.492Z,11.74
2019-03-21T19:01:06.187Z,11.68
2019-03-21T19:04:05.016Z,11.57
2019-03-21T19:06:51.790Z,11.53
2019-03-21T19:09:44.134Z,11.44
2019-03-21T19:12:12.989Z,11.38
2019-03-21T19:14:41.553Z,11.25
2019-03-21T19:17:20.631Z,11.22
2019-03-21T19:19:49.432Z,11.17
2019-03-21T19:22:26.776Z,11.08
2019-03-21T19:25:17.486Z,11.11
2019-03-21T19:27:36.975Z,11.08
2019-03-21T19:30:22.350Z,11.01
2019-03-21T19:32:51.082Z,10.93
2019-03-21T19:35:23.289Z,10.85
2019-03-21T19:37:51.852Z,10.88
2019-03-21T19:41:10.860Z,10.83
2019-03-21T19:43:39.950Z,10.85
2019-03-21T19:46:08.442Z,10.81
2019-03-21T19:48:49.847Z,10.83
2019-03-21T19:51:09.971Z,10.73
2019-03-21T19:53:42.031Z,10.70
2019-03-21T19:56:11.722Z,10.56
2019-03-21T19:58:43.385Z,10.40
2019-03-21T20:01:12.500Z,10.34
2019-03-21T20:03:41.822Z,10.22
2019-03-21T20:06:11.055Z,10.17
2019-03-21T20:08:41.440Z,10.13
2019-03-21T20:11:17.547Z,10.10
2019-03-21T20:13:54.020Z,10.10
2019-03-21T20:16:41.094Z,10.07
2019-03-21T20:19:21.891Z,10.07
2019-03-21T20:22:07.191Z,10.00
2019-03-21T20:24:58.099Z,9.99
2019-03-21T20:28:07.480Z,9.89
2019-03-21T20:31:14.100Z,9.85
2019-03-21T20:34:20.585Z,9.81
2019-03-21T20:37:28.219Z,9.80
2019-03-21T20:41:06.477Z,9.76
2019-03-21T20:43:06.677Z,9.68
2019-03-21T20:45:37.188Z,9.64
2019-03-21T20:48:05.991Z,9.56
2019-03-21T20:50:34.351Z,9.43
2019-03-21T20:53:03.086Z,9.49
2019-03-21T20:55:31.767Z,9.45
2019-03-21T20:58:00.311Z,9.53
2019-03-21T21:00:29.181Z,9.54
2019-03-21T21:02:57.591Z,9.57
2019-03-21T21:05:44.895Z,9.30
2019-03-21T21:08:13.690Z,9.39
2019-03-21T21:10:42.109Z,9.22
2019-03-21T21:13:13.336Z,9.16
2019-03-21T21:15:59.050Z,9.18
2019-03-21T21:18:27.941Z,9.08
2019-03-21T21:21:21.446Z,9.14
2019-03-21T21:23:52.566Z,9.16
2019-03-21T21:26:42.801Z,9.22
2019-03-21T21:29:12.563Z,9.19
2019-03-21T21:31:46.174Z,9.03
2019-03-21T21:37:55.931Z,8.93
2019-03-21T21:41:23.725Z,8.80
2019-03-21T21:43:51.852Z,8.76
2019-03-21T21:46:20.216Z,8.58
2019-03-21T21:48:57.546Z,8.44
2019-03-21T21:51:25.626Z,8.60
2019-03-21T21:53:53.816Z,8.60
2019-03-21T21:56:21.906Z,8.49
2019-03-21T21:58:50.907Z,8.55
2019-03-21T22:01:18.901Z,8.57
2019-03-21T22:03:46.881Z,8.53
2019-03-21T22:06:17.926Z,8.55
2019-03-21T22:08:45.844Z,8.60
2019-03-21T22:11:13.856Z,8.52
2019-03-21T22:13:43.636Z,8.40
2019-03-21T22:16:11.631Z,8.43
2019-03-21T22:18:39.571Z,8.37
2019-03-21T22:21:07.566Z,8.28
2019-03-21T22:23:36.532Z,8.26
2019-03-21T22:46:23.299Z,8.08
2019-03-21T22:49:59.508Z,8.06
2019-03-21T22:51:45.200Z,7.91
2019-03-21T22:54:35.319Z,7.87
2019-03-21T22:57:06.645Z,7.86
2019-03-21T22:59:36.676Z,7.76
2019-03-21T23:17:01.343Z,7.41
2019-03-21T23:20:01.255Z,7.46
2019-03-21T23:26:20.181Z,7.42
2019-03-21T23:43:04.700Z,6.94
2019-03-21T23:45:46.190Z,7.03
2019-03-21T23:49:39.391Z,7.10
2019-03-21T23:57:14.140Z,7.35
